Time;durP1;ratioP1;P1;durP2;ratioP2;P2;SDS_P1;SDS_P2;PMS_P1;PMS_P2;Temp;Humidity;BMP_temperature;BMP_pressure;BME280_temperature;BME280_humidity;BME280_pressure;Samples;Min_cycle;Max_cycle;Signal;HPM_P1;HPM_P2
2022/10/22 00:02:01;;;;;;;0.50;0.50;;;;;;;10.26;73.40;99651.75;5093993;28;20040;-66
2022/10/22 00:04:29;;;;;;;2.17;1.45;;;;;;;10.24;73.01;99651.78;5094947;28;20131;-65
2022/10/22 00:07:03;;;;;;;0.93;0.93;;;;;;;10.22;73.30;99658.53;5094801;28;20048;-65
2022/10/22 00:09:31;;;;;;;0.98;0.88;;;;;;;10.20;73.73;99659.44;5095236;28;20512;-66
2022/10/22 00:12:00;;;;;;;2.65;0.95;;;;;;;10.17;73.57;99662.81;5094604;28;20089;-66
2022/10/22 00:14:28;;;;;;;2.65;1.95;;;;;;;10.15;73.06;99653.47;5094476;28;20044;-65
2022/10/22 00:16:59;;;;;;;1.65;1.33;;;;;;;10.12;73.74;99656.88;5094835;28;20094;-66
2022/10/22 00:19:29;;;;;;;2.55;1.52;;;;;;;10.10;73.39;99659.34;5094786;28;20521;-65
2022/10/22 00:21:58;;;;;;;1.00;1.00;;;;;;;10.10;73.84;99658.53;5094765;28;20119;-65
2022/10/22 00:24:27;;;;;;;1.02;0.93;;;;;;;10.09;73.40;99649.16;5093114;28;20050;-66
2022/10/22 00:26:55;;;;;;;0.60;0.60;;;;;;;10.06;73.75;99646.63;5094629;28;20040;-65
2022/10/22 00:29:24;;;;;;;0.70;0.70;;;;;;;10.01;73.73;99643.22;5094614;28;20043;-66
2022/10/22 00:31:53;;;;;;;1.58;1.42;;;;;;;10.02;73.21;99647.47;5093720;28;20048;-64
2022/10/22 00:34:22;;;;;;;0.40;0.40;;;;;;;9.97;73.15;99661.91;5094432;28;20386;-65
2022/10/22 00:36:53;;;;;;;0.70;0.70;;;;;;;9.93;73.92;99680.59;5094481;28;20032;-65
2022/10/22 00:39:24;;;;;;;1.25;0.77;;;;;;;9.88;73.32;99677.19;5094496;28;20090;-65
2022/10/22 00:41:56;;;;;;;0.88;0.88;;;;;;;9.89;74.09;99668.69;5094110;28;20101;-66
2022/10/22 00:44:46;;;;;;;2.00;1.40;;;;;;;9.88;73.57;99672.94;5094010;28;20206;-66
2022/10/22 00:47:16;;;;;;;1.25;1.15;;;;;;;9.80;74.07;99668.66;5094350;28;20078;-66
2022/10/22 00:49:46;;;;;;;1.63;1.52;;;;;;;9.78;74.51;99671.22;5093951;28;20044;-65
2022/10/22 00:52:16;;;;;;;1.17;0.93;;;;;;;9.78;74.28;99655.06;5094227;28;20108;-65
2022/10/22 00:54:45;;;;;;;1.63;1.52;;;;;;;9.79;73.96;99644.06;5093922;28;20078;-66
2022/10/22 00:57:15;;;;;;;1.30;1.15;;;;;;;9.79;74.46;99636.41;5094170;28;20039;-65
2022/10/22 00:59:44;;;;;;;0.75;0.75;;;;;;;9.71;74.02;99627.88;5094162;28;20093;-66
2022/10/22 01:02:13;;;;;;;0.50;0.50;;;;;;;9.73;74.65;99636.38;5093802;28;20131;-65
2022/10/22 01:04:42;;;;;;;1.58;1.02;;;;;;;9.73;74.45;99616.00;5093676;28;20072;-65
2022/10/22 01:07:18;;;;;;;2.33;1.33;;;;;;;9.73;74.45;99626.19;5093748;28;20040;-66
2022/10/22 01:09:56;;;;;;;2.17;1.20;;;;;;;9.71;74.58;99635.53;5094085;28;20055;-65
2022/10/22 01:12:36;;;;;;;0.65;0.65;;;;;;;9.68;74.53;99643.16;5094084;28;20113;-65
2022/10/22 01:15:16;;;;;;;1.05;0.95;;;;;;;9.65;74.68;99643.16;5093957;28;20075;-65
2022/10/22 01:17:53;;;;;;;0.60;0.60;;;;;;;9.63;74.26;99644.84;5093715;28;20058;-65
2022/10/22 01:20:41;;;;;;;3.03;1.08;;;;;;;9.60;74.60;99650.78;5093968;28;20036;-66
2022/10/22 01:23:25;;;;;;;1.10;1.00;;;;;;;9.60;74.54;99650.78;5093966;28;20044;-66
2022/10/22 01:26:03;;;;;;;1.23;1.13;;;;;;;9.61;74.01;99646.53;5093859;28;20055;-66
2022/10/22 01:28:49;;;;;;;1.33;1.25;;;;;;;9.54;75.12;99640.59;5093580;28;20044;-65
2022/10/22 01:31:22;;;;;;;5.00;1.95;;;;;;;9.50;75.51;99636.34;5093527;28;20052;-65
2022/10/22 01:33:53;;;;;;;1.58;1.48;;;;;;;9.44;74.72;99633.75;5093937;28;20043;-65
2022/10/22 01:36:22;;;;;;;1.23;1.00;;;;;;;9.37;75.27;99635.44;5093465;28;20052;-65
2022/10/22 01:38:52;;;;;;;0.73;0.63;;;;;;;9.42;75.61;99638.88;5093750;28;20067;-65
2022/10/22 01:41:21;;;;;;;0.93;0.93;;;;;;;9.43;75.14;99638.00;5094046;28;20081;-65
2022/10/22 01:43:50;;;;;;;0.85;0.77;;;;;;;9.42;75.44;99631.22;5096238;28;20047;-65
2022/10/22 01:46:22;;;;;;;1.17;1.05;;;;;;;9.44;75.10;99619.34;5096169;28;20397;-65
2022/10/22 01:49:12;;;;;;;0.82;0.82;;;;;;;9.39;75.23;99615.06;5097425;28;20497;-66
2022/10/22 01:51:55;;;;;;;1.08;0.93;;;;;;;9.24;75.76;99610.78;5097355;28;20052;-65
2022/10/22 01:54:33;;;;;;;0.73;0.70;;;;;;;9.15;75.84;99617.53;5097385;28;20405;-65
2022/10/22 01:57:11;;;;;;;1.23;1.10;;;;;;;9.02;75.91;99615.78;5097493;28;20402;-65
2022/10/22 01:59:51;;;;;;;1.20;0.73;;;;;;;9.06;76.53;99610.72;5097551;28;20052;-65
2022/10/22 02:02:34;;;;;;;0.38;0.38;;;;;;;8.96;76.56;99614.06;5097462;28;20040;-65
2022/10/22 02:05:08;;;;;;;1.58;1.48;;;;;;;8.88;76.62;99615.72;5097230;28;20036;-65
2022/10/22 02:07:44;;;;;;;0.90;0.90;;;;;;;8.88;76.80;99620.78;5097005;28;20552;-65
2022/10/22 02:10:14;;;;;;;0.70;0.70;;;;;;;8.82;77.09;99620.78;5097043;28;20044;-65
2022/10/22 02:12:46;;;;;;;1.67;1.15;;;;;;;8.76;76.89;99626.69;5096043;28;20064;-65
2022/10/22 02:15:20;;;;;;;1.58;1.48;;;;;;;8.64;76.52;99603.72;5097060;28;20044;-65
2022/10/22 02:17:51;;;;;;;1.52;1.17;;;;;;;8.71;77.53;99632.56;5096786;28;20052;-66
2022/10/22 02:20:24;;;;;;;1.35;1.25;;;;;;;8.66;78.00;99634.28;5096814;28;20074;-65
2022/10/22 02:22:54;;;;;;;1.60;1.25;;;;;;;8.71;77.16;99622.41;5097093;28;20098;-65
2022/10/22 02:25:25;;;;;;;1.40;1.15;;;;;;;8.68;77.49;99622.41;5096609;28;20036;-65
2022/10/22 02:28:02;;;;;;;1.52;1.15;;;;;;;8.54;77.47;99611.28;5096695;28;20551;-65
2022/10/22 02:30:35;;;;;;;0.43;0.43;;;;;;;8.53;77.17;99627.38;5096583;28;20478;-65
2022/10/22 02:33:10;;;;;;;0.80;0.80;;;;;;;8.45;77.10;99634.09;5096611;28;20058;-65
2022/10/22 02:35:41;;;;;;;1.30;0.95;;;;;;;8.39;78.27;99634.94;5096516;28;20048;-65
2022/10/22 02:38:11;;;;;;;6.50;1.33;;;;;;;8.39;78.14;99639.16;5096437;28;20046;-65
2022/10/22 02:40:41;;;;;;;1.70;1.10;;;;;;;8.46;78.12;99628.19;5096438;28;20075;-65
2022/10/22 02:43:10;;;;;;;1.63;1.00;;;;;;;8.40;77.73;99625.59;5096357;28;20044;-66
2022/10/22 02:45:40;;;;;;;0.43;0.43;;;;;;;8.31;78.54;99628.06;5096308;28;20063;-65
2022/10/22 02:48:09;;;;;;;0.35;0.35;;;;;;;8.37;78.62;99615.41;5096534;28;20269;-65
2022/10/22 02:50:38;;;;;;;1.48;1.33;;;;;;;8.42;78.44;99599.31;5096193;28;20055;-64
2022/10/22 02:53:06;;;;;;;2.28;2.08;;;;;;;8.46;78.71;99592.59;5096443;28;20419;-65
2022/10/22 02:55:36;;;;;;;2.45;1.70;;;;;;;8.42;78.57;99583.25;5093729;28;20040;-64
2022/10/22 02:58:05;;;;;;;0.70;0.70;;;;;;;8.41;78.11;99584.94;5096396;28;20058;-65
2022/10/22 03:00:33;;;;;;;0.95;0.90;;;;;;;8.34;78.37;99584.88;5096269;28;20393;-66
2022/10/22 03:03:04;;;;;;;1.73;1.63;;;;;;;8.31;78.37;99589.94;5096276;28;20493;-65
2022/10/22 03:05:32;;;;;;;2.88;1.25;;;;;;;8.33;78.77;99593.34;5096115;28;20070;-65
2022/10/22 03:08:01;;;;;;;1.30;1.17;;;;;;;8.36;78.31;99583.19;5096218;28;20058;-65
2022/10/22 03:10:30;;;;;;;5.95;2.90;;;;;;;8.39;78.24;99578.13;5095775;28;20047;-65
2022/10/22 03:12:58;;;;;;;0.65;0.65;;;;;;;8.44;78.35;99591.72;5095805;28;20043;-65
2022/10/22 03:15:27;;;;;;;1.20;1.10;;;;;;;8.47;78.59;99589.22;5096031;28;20051;-65
2022/10/22 03:18:01;;;;;;;0.75;0.75;;;;;;;8.51;78.99;99588.38;5095723;28;20050;-65
2022/10/22 03:20:31;;;;;;;1.15;1.00;;;;;;;8.49;78.94;99583.28;5095659;28;20502;-65
2022/10/22 03:23:01;;;;;;;0.93;0.93;;;;;;;8.45;78.35;99573.94;5095944;28;20048;-66
2022/10/22 03:25:33;;;;;;;0.80;0.80;;;;;;;8.42;77.58;99578.16;5095815;28;20123;-65
2022/10/22 03:28:07;;;;;;;1.13;1.08;;;;;;;8.46;77.78;99584.94;5095562;28;20052;-65
2022/10/22 03:30:36;;;;;;;1.42;1.23;;;;;;;8.47;78.14;99584.13;5095384;28;20040;-66
2022/10/22 03:33:05;;;;;;;0.60;0.60;;;;;;;8.47;77.76;99591.75;5095440;28;20040;-65
2022/10/22 03:35:42;;;;;;;1.95;1.05;;;;;;;8.44;78.15;99586.66;5095353;28;20044;-65
2022/10/22 03:38:13;;;;;;;1.33;1.23;;;;;;;8.43;77.95;99584.94;5095626;28;20117;-65
2022/10/22 03:40:44;;;;;;;0.43;0.43;;;;;;;8.41;78.54;99576.44;5095555;28;20059;-65
2022/10/22 03:43:14;;;;;;;1.27;1.17;;;;;;;8.42;77.29;99580.69;5095837;28;20050;-65
2022/10/22 03:45:42;;;;;;;1.15;0.98;;;;;;;8.37;77.69;99582.38;5095088;28;20044;-65
2022/10/22 03:48:11;;;;;;;1.00;0.90;;;;;;;8.36;77.79;99588.28;5095372;28;20040;-65
2022/10/22 03:50:41;;;;;;;2.20;1.87;;;;;;;8.35;78.13;99591.69;5095257;28;20498;-65
2022/10/22 03:53:10;;;;;;;1.38;1.25;;;;;;;8.34;78.11;99589.97;5095017;28;20051;-65
2022/10/22 03:55:41;;;;;;;1.02;0.93;;;;;;;8.34;77.41;99589.97;5094818;28;20513;-65
2022/10/22 03:58:10;;;;;;;2.13;1.45;;;;;;;8.36;77.75;99588.28;5095222;28;20513;-66
2022/10/22 04:00:38;;;;;;;2.95;1.85;;;;;;;8.35;77.73;99591.69;5094774;28;20036;-65
2022/10/22 04:03:07;;;;;;;1.27;0.95;;;;;;;8.31;77.15;99582.31;5094779;28;20044;-65
2022/10/22 04:05:35;;;;;;;1.10;1.00;;;;;;;8.31;78.16;99584.84;5094785;28;20036;-65
2022/10/22 04:08:06;;;;;;;2.15;1.35;;;;;;;8.30;78.33;99593.34;5094720;28;20046;-65
2022/10/22 04:10:34;;;;;;;1.08;0.82;;;;;;;8.32;77.72;99582.34;5094695;28;20050;-65
2022/10/22 04:13:03;;;;;;;0.88;0.88;;;;;;;8.32;77.36;99589.09;5094578;28;20093;-65
2022/10/22 04:15:32;;;;;;;0.80;0.80;;;;;;;8.31;78.01;99595.00;5094567;28;20401;-65
2022/10/22 04:18:00;;;;;;;0.97;0.97;;;;;;;8.24;78.35;99593.25;5093361;28;20032;-66
2022/10/22 04:20:29;;;;;;;1.88;1.75;;;;;;;8.13;77.78;99591.47;5094776;28;20035;-65
2022/10/22 04:22:57;;;;;;;2.00;1.77;;;;;;;8.00;77.94;99592.22;5094670;28;20063;-65
2022/10/22 04:25:27;;;;;;;0.40;0.40;;;;;;;7.96;77.81;99582.88;5094610;28;20051;-65
2022/10/22 04:27:56;;;;;;;1.25;1.02;;;;;;;7.98;78.18;99563.41;5094409;28;20048;-65
2022/10/22 04:30:25;;;;;;;1.35;1.13;;;;;;;8.01;78.59;99563.41;5094285;28;20043;-65
2022/10/22 04:32:53;;;;;;;1.33;1.23;;;;;;;7.99;78.34;99562.56;5094490;28;20086;-65
2022/10/22 04:35:22;;;;;;;0.85;0.85;;;;;;;7.90;78.45;99562.50;5094260;28;20397;-65
2022/10/22 04:37:55;;;;;;;2.63;1.85;;;;;;;7.72;79.13;99552.19;5094536;28;20071;-65
2022/10/22 04:40:24;;;;;;;0.80;0.80;;;;;;;7.79;78.40;99569.19;5093310;28;20028;-65
2022/10/22 04:42:54;;;;;;;1.00;0.95;;;;;;;7.77;78.43;99558.16;5094374;28;20036;-65
2022/10/22 04:45:23;;;;;;;1.02;0.98;;;;;;;7.71;78.58;99565.72;5094306;28;20072;-65
2022/10/22 04:47:51;;;;;;;2.42;1.67;;;;;;;7.72;78.84;99567.44;5094026;28;20032;-65
2022/10/22 04:50:20;;;;;;;0.40;0.40;;;;;;;7.70;78.72;99574.16;5093939;28;20046;-65
2022/10/22 04:52:48;;;;;;;1.30;1.20;;;;;;;7.65;78.57;99559.75;5093870;28;20054;-65
2022/10/22 04:55:18;;;;;;;1.85;1.25;;;;;;;7.63;78.99;99547.00;5093907;28;20052;-64
2022/10/22 04:57:46;;;;;;;1.55;1.42;;;;;;;7.60;79.01;99552.09;5093881;28;20047;-65
2022/10/22 05:00:17;;;;;;;1.40;1.30;;;;;;;7.49;78.80;99542.66;5093860;28;20044;-65
2022/10/22 05:02:49;;;;;;;1.10;1.00;;;;;;;7.60;79.26;99562.25;5093827;28;20070;-65
2022/10/22 05:05:18;;;;;;;0.57;0.57;;;;;;;7.65;78.91;99570.75;5094411;28;20040;-65
2022/10/22 05:07:46;;;;;;;0.90;0.88;;;;;;;7.70;79.30;99569.09;5093703;28;20482;-65
2022/10/22 05:10:15;;;;;;;0.75;0.75;;;;;;;7.76;79.35;99569.16;5093982;28;20051;-65
2022/10/22 05:12:44;;;;;;;4.85;1.25;;;;;;;7.79;79.10;99568.34;5093654;28;20137;-64
2022/10/22 05:15:12;;;;;;;1.23;0.90;;;;;;;7.79;79.19;99558.16;5093614;28;20047;-65
2022/10/22 05:17:42;;;;;;;3.22;2.00;;;;;;;7.79;79.17;99566.66;5093103;28;20493;-65
2022/10/22 05:20:11;;;;;;;0.57;0.57;;;;;;;7.82;79.20;99564.13;5093646;28;20070;-65
2022/10/22 05:22:40;;;;;;;0.35;0.35;;;;;;;7.85;79.08;99578.53;5094168;28;20397;-65
2022/10/22 05:25:11;;;;;;;7.10;1.45;;;;;;;7.87;78.86;99577.72;5093784;28;20040;-65
2022/10/22 05:27:39;;;;;;;1.50;1.40;;;;;;;7.87;79.68;99567.53;5093880;28;20435;-65
2022/10/22 05:30:09;;;;;;;1.13;1.05;;;;;;;7.90;79.20;99572.66;5093829;28;20046;-65
2022/10/22 05:32:38;;;;;;;1.75;1.52;;;;;;;7.93;78.93;99576.91;5093816;28;20040;-65
2022/10/22 05:35:08;;;;;;;2.05;0.93;;;;;;;7.95;79.65;99576.09;5092834;28;20397;-65
2022/10/22 05:37:37;;;;;;;1.65;1.00;;;;;;;7.93;78.66;99577.78;5093807;28;20040;-65
2022/10/22 05:40:07;;;;;;;0.40;0.40;;;;;;;7.85;79.12;99573.44;5093463;28;20047;-65
2022/10/22 05:42:54;;;;;;;2.95;1.08;;;;;;;7.81;79.41;99577.66;5093471;28;20102;-64
2022/10/22 05:45:22;;;;;;;14.90;2.40;;;;;;;7.78;79.38;99577.63;5093644;28;20032;-65
2022/10/22 05:47:51;;;;;;;0.93;0.88;;;;;;;7.80;79.17;99580.19;5093278;28;20047;-65
2022/10/22 05:50:21;;;;;;;0.90;0.88;;;;;;;7.88;79.73;99579.41;5093334;28;20482;-65
2022/10/22 05:52:50;;;;;;;1.30;1.20;;;;;;;7.91;79.59;99579.47;5093706;28;20102;-66
2022/10/22 05:55:18;;;;;;;0.35;0.35;;;;;;;7.88;79.35;99587.03;5093286;28;20037;-65
2022/10/22 05:57:48;;;;;;;0.63;0.63;;;;;;;8.00;79.93;99594.78;5093314;28;20036;-65
2022/10/22 06:00:17;;;;;;;1.45;1.33;;;;;;;8.16;79.94;99603.34;5093269;28;20056;-65
2022/10/22 06:02:50;;;;;;;0.88;0.88;;;;;;;8.24;79.76;99595.78;5093813;28;20042;-66
2022/10/22 06:05:19;;;;;;;0.70;0.70;;;;;;;8.25;79.68;99584.78;5093174;28;20048;-66
2022/10/22 06:07:49;;;;;;;0.60;0.60;;;;;;;8.22;80.16;99600.88;5093149;28;20047;-66
2022/10/22 06:10:20;;;;;;;1.95;1.65;;;;;;;8.15;79.46;99599.13;5093163;28;20048;-66
2022/10/22 06:12:49;;;;;;;0.40;0.40;;;;;;;8.13;79.71;99599.09;5093242;28;20527;-66
2022/10/22 06:15:19;;;;;;;0.30;0.30;;;;;;;8.10;79.43;99575.34;5093368;28;20040;-65
2022/10/22 06:17:48;;;;;;;1.67;1.23;;;;;;;8.17;78.88;99581.34;5092969;28;20101;-66
2022/10/22 06:20:17;;;;;;;0.50;0.50;;;;;;;8.19;78.97;99579.66;5093321;28;20486;-66
2022/10/22 06:22:47;;;;;;;2.17;1.52;;;;;;;8.17;79.33;99576.25;5093029;28;20505;-66
2022/10/22 06:25:17;;;;;;;0.68;0.68;;;;;;;8.18;79.51;99593.22;5093352;28;20048;-65
2022/10/22 06:27:50;;;;;;;3.97;1.98;;;;;;;8.17;79.54;99592.34;5091704;28;20047;-66
2022/10/22 06:30:19;;;;;;;0.88;0.82;;;;;;;8.26;79.25;99602.63;5095239;28;20040;-66
2022/10/22 06:32:47;;;;;;;1.25;1.15;;;;;;;8.36;79.60;99608.63;5096509;28;20032;-65
2022/10/22 06:35:16;;;;;;;1.05;0.95;;;;;;;8.44;80.01;99612.06;5096429;28;20036;-65
2022/10/22 06:37:46;;;;;;;1.67;1.35;;;;;;;8.54;79.65;99624.00;5096798;28;20055;-65
2022/10/22 06:40:15;;;;;;;1.02;0.98;;;;;;;8.72;79.22;99630.06;5096311;28;20059;-66
2022/10/22 06:42:45;;;;;;;2.58;2.25;;;;;;;8.97;78.86;99633.59;5095389;28;20379;-66
2022/10/22 06:45:14;;;;;;;9.52;2.17;;;;;;;9.07;79.26;99627.66;5096226;28;20048;-65
2022/10/22 06:47:42;;;;;;;1.13;1.03;;;;;;;9.12;78.10;99610.72;5096111;28;20040;-65
2022/10/22 06:50:11;;;;;;;3.80;1.55;;;;;;;9.23;78.32;99626.91;5096006;28;20075;-66
2022/10/22 06:52:40;;;;;;;0.68;0.68;;;;;;;9.27;78.42;99613.34;5096311;28;20066;-66
2022/10/22 06:55:09;;;;;;;2.47;2.05;;;;;;;9.37;77.64;99632.03;5095902;28;20048;-65
2022/10/22 06:57:38;;;;;;;2.00;1.80;;;;;;;9.42;77.83;99631.22;5096403;28;20040;-66
2022/10/22 07:00:10;;;;;;;0.50;0.50;;;;;;;9.50;77.98;99632.94;5096056;28;20097;-65
2022/10/22 07:02:38;;;;;;;2.25;2.05;;;;;;;9.52;77.20;99631.25;5095986;28;20047;-66
2022/10/22 07:05:08;;;;;;;2.40;1.13;;;;;;;9.55;77.42;99623.63;5096321;28;20040;-66
2022/10/22 07:07:38;;;;;;;1.58;1.48;;;;;;;9.61;76.57;99615.97;5095827;28;20048;-66
2022/10/22 07:10:08;;;;;;;1.20;1.07;;;;;;;9.60;75.92;99614.28;5095839;28;20040;-66
2022/10/22 07:12:36;;;;;;;2.45;2.25;;;;;;;9.60;75.86;99614.28;5095833;28;20493;-66
2022/10/22 07:15:06;;;;;;;0.85;0.77;;;;;;;9.62;75.65;99620.22;5096241;28;20431;-65
2022/10/22 07:17:36;;;;;;;1.08;1.08;;;;;;;9.63;76.10;99634.66;5095724;28;20575;-66
2022/10/22 07:20:06;;;;;;;5.57;1.75;;;;;;;9.63;75.56;99627.00;5095654;28;20051;-66
2022/10/22 07:22:34;;;;;;;;;;;;;;;9.64;75.66;99605.78;5095938;28;20044;-66
2022/10/22 07:25:03;;;;;;;1.27;1.17;;;;;;;9.69;75.92;99625.34;5095843;28;19926;-66
2022/10/22 07:27:34;;;;;;;1.50;1.40;;;;;;;9.77;75.75;99620.22;5095658;28;20044;-65
2022/10/22 07:30:04;;;;;;;0.80;0.80;;;;;;;9.77;75.61;99615.13;5095478;28;20036;-66
2022/10/22 07:32:33;;;;;;;1.42;1.20;;;;;;;9.84;75.55;99614.28;5095693;28;20044;-66
2022/10/22 07:35:03;;;;;;;2.38;2.13;;;;;;;9.90;75.53;99625.38;5095352;28;20051;-67
2022/10/22 07:37:32;;;;;;;2.17;1.65;;;;;;;9.95;74.93;99631.31;5095763;28;20413;-66
2022/10/22 07:40:00;;;;;;;1.48;1.38;;;;;;;10.03;75.43;99641.50;5094935;28;20033;-66
2022/10/22 07:42:31;;;;;;;1.50;1.40;;;;;;;10.13;75.02;99643.25;5095086;28;20040;-66
2022/10/22 07:45:00;;;;;;;1.92;1.70;;;;;;;10.31;74.89;99648.38;5095405;28;20456;-66
2022/10/22 07:47:28;;;;;;;2.28;1.33;;;;;;;10.45;75.11;99654.31;5094997;28;20070;-66
2022/10/22 07:49:57;;;;;;;3.88;1.85;;;;;;;10.54;74.63;99651.75;5095310;28;20032;-66
2022/10/22 07:52:27;;;;;;;0.60;0.60;;;;;;;10.67;74.33;99648.34;5095030;28;20040;-66
2022/10/22 07:54:56;;;;;;;2.67;1.90;;;;;;;10.85;74.50;99641.47;5095042;28;20056;-66
2022/10/22 07:57:25;;;;;;;2.45;1.13;;;;;;;10.98;74.40;99648.25;5095297;28;20048;-66
2022/10/22 07:59:55;;;;;;;2.65;2.40;;;;;;;11.12;74.35;99639.69;5095134;28;20050;-66
2022/10/22 08:02:24;;;;;;;1.38;1.27;;;;;;;11.22;73.90;99637.94;5095142;28;20122;-66
2022/10/22 08:04:52;;;;;;;0.85;0.85;;;;;;;11.26;73.91;99634.53;5094782;28;20039;-66
2022/10/22 08:07:21;;;;;;;0.60;0.60;;;;;;;11.32;73.43;99630.25;5093984;28;20066;-66
2022/10/22 08:09:51;;;;;;;1.35;1.17;;;;;;;11.43;72.82;99638.69;5094650;28;20066;-67
2022/10/22 08:12:20;;;;;;;1.60;1.50;;;;;;;11.46;72.61;99617.41;5094594;28;20059;-66
2022/10/22 08:14:49;;;;;;;0.65;0.65;;;;;;;11.60;72.00;99620.72;5093375;28;20478;-66
2022/10/22 08:17:18;;;;;;;1.98;1.83;;;;;;;11.63;71.87;99625.81;5094522;28;20040;-66
2022/10/22 08:19:46;;;;;;;2.47;1.77;;;;;;;11.67;71.46;99632.59;5094749;28;20047;-66
2022/10/22 08:22:15;;;;;;;2.50;1.77;;;;;;;11.76;71.50;99634.28;5094429;28;20127;-66
2022/10/22 08:24:44;;;;;;;0.90;0.90;;;;;;;11.91;71.31;99629.94;5094348;28;20040;-67
2022/10/22 08:27:14;;;;;;;2.38;1.17;;;;;;;12.10;70.84;99649.41;5094345;28;20079;-66
2022/10/22 08:29:42;;;;;;;2.83;1.88;;;;;;;12.22;70.60;99647.59;5094656;28;20052;-66
2022/10/22 08:32:12;;;;;;;4.30;1.55;;;;;;;12.32;70.24;99638.97;5094690;28;20047;-67
2022/10/22 08:34:40;;;;;;;1.67;1.30;;;;;;;12.40;70.13;99626.97;5094314;28;20059;-67
2022/10/22 08:37:13;;;;;;;1.55;1.38;;;;;;;12.49;69.80;99621.78;5094487;28;20130;-66
2022/10/22 08:39:42;;;;;;;2.70;1.33;;;;;;;12.50;69.41;99623.47;5094275;28;20493;-67
2022/10/22 08:42:38;;;;;;;0.65;0.65;;;;;;;12.49;68.97;99632.00;5094102;28;20040;-66
2022/10/22 08:45:15;;;;;;;1.38;1.27;;;;;;;12.52;69.29;99635.41;5094672;28;20531;-66
2022/10/22 08:48:07;;;;;;;1.90;1.80;;;;;;;12.69;69.83;99630.94;5093958;28;20044;-67
2022/10/22 08:50:41;;;;;;;6.38;1.75;;;;;;;12.74;69.33;99620.69;5093954;28;20040;-67
2022/10/22 08:53:15;;;;;;;5.55;3.00;;;;;;;12.70;68.97;99617.28;5093351;28;20048;-67
2022/10/22 08:55:44;;;;;;;1.48;1.38;;;;;;;12.69;68.51;99620.69;5093693;28;20051;-67
2022/10/22 08:58:27;;;;;;;1.65;1.17;;;;;;;12.71;68.43;99613.03;5093878;28;20045;-67
2022/10/22 09:00:59;;;;;;;2.63;2.03;;;;;;;12.75;68.10;99615.53;5094239;28;20043;-67
2022/10/22 09:03:46;;;;;;;1.98;1.58;;;;;;;12.83;67.97;99618.00;5093788;28;20564;-67
2022/10/22 09:06:18;;;;;;;1.77;1.67;;;;;;;12.91;68.00;99631.56;5093823;28;20072;-67
2022/10/22 09:08:48;;;;;;;1.25;1.10;;;;;;;13.09;68.20;99626.28;5093681;28;20490;-67
2022/10/22 09:11:24;;;;;;;1.55;1.45;;;;;;;13.29;68.32;99634.56;5093717;28;20090;-67
2022/10/22 09:13:56;;;;;;;1.98;1.58;;;;;;;13.41;68.36;99644.66;5094016;28;20052;-67
2022/10/22 09:16:34;;;;;;;1.15;1.05;;;;;;;13.54;67.84;99654.75;5093857;28;20490;-67
2022/10/22 09:19:13;;;;;;;0.90;0.85;;;;;;;13.69;67.51;99654.56;5093640;28;20055;-67
2022/10/22 09:21:51;;;;;;;2.17;1.90;;;;;;;13.79;67.33;99666.41;5094022;28;20093;-66
2022/10/22 09:24:32;;;;;;;0.98;0.90;;;;;;;13.87;66.17;99662.00;5093941;28;20101;-67
2022/10/22 09:27:02;;;;;;;1.33;1.13;;;;;;;13.97;65.97;99661.00;5093898;28;20452;-67
2022/10/22 09:29:34;;;;;;;1.55;1.27;;;;;;;14.07;65.14;99662.56;5093724;28;20482;-67
2022/10/22 09:32:03;;;;;;;1.27;1.17;;;;;;;14.16;64.62;99671.84;5093883;28;20040;-66
2022/10/22 09:34:32;;;;;;;1.05;0.98;;;;;;;14.25;64.70;99667.41;5093660;28;20040;-68
2022/10/22 09:37:06;;;;;;;1.38;1.27;;;;;;;14.31;64.32;99658.78;5093546;28;20052;-66
2022/10/22 09:39:39;;;;;;;1.83;1.73;;;;;;;14.30;64.41;99660.50;5093471;28;20098;-67
2022/10/22 09:42:11;;;;;;;1.42;1.20;;;;;;;14.28;64.09;99669.91;5093370;28;20044;-67
2022/10/22 09:44:42;;;;;;;1.77;1.35;;;;;;;14.24;63.82;99675.13;5093479;28;20048;-66
2022/10/22 09:47:32;;;;;;;1.67;1.30;;;;;;;14.18;63.94;99676.06;5093273;28;20072;-67
2022/10/22 09:50:21;;;;;;;1.33;1.00;;;;;;;14.17;64.26;99671.81;5093340;28;20032;-67
2022/10/22 09:53:04;;;;;;;0.68;0.68;;;;;;;14.19;63.84;99677.78;5093663;28;20047;-66
2022/10/22 09:55:32;;;;;;;1.60;0.90;;;;;;;14.20;63.99;99681.19;5093049;28;20048;-67
2022/10/22 09:58:01;;;;;;;1.80;1.35;;;;;;;14.18;64.27;99681.19;5093593;28;20044;-67
2022/10/22 10:00:31;;;;;;;1.85;1.60;;;;;;;14.24;64.79;99683.69;5093709;28;20032;-67
2022/10/22 10:03:00;;;;;;;2.72;1.88;;;;;;;14.25;64.50;99672.56;5093560;28;20044;-67
2022/10/22 10:05:32;;;;;;;1.20;1.10;;;;;;;14.26;64.73;99676.81;5096995;28;20044;-67
2022/10/22 10:08:12;;;;;;;3.53;1.17;;;;;;;14.27;64.58;99680.22;5097038;28;20285;-67
2022/10/22 10:10:47;;;;;;;1.15;1.05;;;;;;;14.28;64.84;99671.63;5097310;28;20070;-67
2022/10/22 10:13:31;;;;;;;0.75;0.75;;;;;;;14.32;64.62;99676.75;5097276;28;20044;-67
2022/10/22 10:16:11;;;;;;;1.67;1.52;;;;;;;14.34;64.69;99672.44;5096918;28;20059;-67
2022/10/22 10:18:53;;;;;;;3.05;1.70;;;;;;;14.32;64.72;99663.91;5097245;28;20085;-67
2022/10/22 10:21:31;;;;;;;1.23;1.13;;;;;;;14.33;64.59;99668.16;5096941;28;20044;-67
2022/10/22 10:24:11;;;;;;;1.58;1.38;;;;;;;14.30;64.03;99659.63;5097402;28;20048;-67
2022/10/22 10:26:53;;;;;;;1.20;1.10;;;;;;;14.24;63.93;99662.28;5096741;28;20090;-67
2022/10/22 10:29:36;;;;;;;3.22;1.88;;;;;;;14.20;63.74;99664.06;5096634;28;20044;-66
2022/10/22 10:32:27;;;;;;;1.33;1.23;;;;;;;14.17;63.57;99661.53;5096958;28;20048;-67
2022/10/22 10:35:04;;;;;;;1.02;0.85;;;;;;;14.15;63.83;99657.31;5096605;28;20477;-67
2022/10/22 10:37:40;;;;;;;1.55;1.15;;;;;;;14.12;63.75;99663.34;5096868;28;20048;-66
2022/10/22 10:40:27;;;;;;;3.20;1.02;;;;;;;14.10;63.91;99667.66;5096773;28;20048;-66
2022/10/22 10:43:02;;;;;;;13.93;1.83;;;;;;;14.12;64.43;99673.59;5096759;28;20079;-66
2022/10/22 10:45:43;;;;;;;3.58;3.28;;;;;;;14.11;65.59;99671.91;5096360;28;20052;-66
2022/10/22 10:48:39;;;;;;;1.27;0.93;;;;;;;14.08;65.38;99674.53;5096627;28;20245;-67
2022/10/22 10:51:23;;;;;;;2.28;1.80;;;;;;;14.10;66.42;99678.78;5094454;28;20047;-67
2022/10/22 10:54:07;;;;;;;1.85;1.60;;;;;;;14.11;66.59;99677.03;5094989;28;20088;-66
2022/10/22 10:56:41;;;;;;;1.98;1.88;;;;;;;14.07;66.56;99672.81;5095907;28;20052;-67
2022/10/22 10:59:19;;;;;;;0.88;0.88;;;;;;;14.04;67.25;99667.72;5095160;28;20452;-67
2022/10/22 11:01:59;;;;;;;1.15;1.05;;;;;;;13.99;67.97;99664.38;5096001;28;20056;-67
2022/10/22 11:04:49;;;;;;;0.73;0.73;;;;;;;13.91;67.48;99661.09;5095985;28;20048;-68
2022/10/22 11:07:24;;;;;;;1.00;0.90;;;;;;;13.86;68.33;99660.31;5096303;28;20052;-69
2022/10/22 11:10:10;;;;;;;1.33;1.23;;;;;;;13.83;69.28;99655.22;5095976;28;20044;-67
2022/10/22 11:12:47;;;;;;;1.17;1.10;;;;;;;13.81;70.59;99654.41;5095868;28;20063;-68
2022/10/22 11:15:27;;;;;;;1.25;0.73;;;;;;;13.79;71.53;99656.13;5095294;28;20393;-67
2022/10/22 11:18:06;;;;;;;3.50;1.73;;;;;;;13.73;72.81;99656.22;5094741;28;20113;-68
2022/10/22 11:20:46;;;;;;;1.45;1.35;;;;;;;13.65;73.61;99656.34;5095815;28;20385;-67
2022/10/22 11:23:18;;;;;;;24.75;2.65;;;;;;;13.61;74.23;99651.25;5095886;28;20044;-67
2022/10/22 11:25:50;;;;;;;1.38;1.27;;;;;;;13.56;75.39;99663.28;5095652;28;20055;-67
2022/10/22 11:28:26;;;;;;;0.93;0.90;;;;;;;13.50;76.16;99663.38;5094599;28;20569;-67
2022/10/22 11:31:00;;;;;;;0.82;0.80;;;;;;;13.46;76.62;99677.09;5095444;28;20097;-67
2022/10/22 11:33:38;;;;;;;5.65;1.45;;;;;;;13.40;77.10;99668.63;5095402;28;20051;-67
2022/10/22 11:36:10;;;;;;;1.40;1.30;;;;;;;13.34;76.54;99673.81;5095334;28;20047;-67
2022/10/22 11:38:39;;;;;;;1.17;1.08;;;;;;;13.34;76.84;99668.69;5095341;28;20051;-66
2022/10/22 11:41:13;;;;;;;0.95;0.77;;;;;;;13.36;76.56;99672.06;5095551;28;20070;-68
2022/10/22 11:43:55;;;;;;;3.58;1.65;;;;;;;13.38;77.21;99683.19;5095505;28;20047;-67
2022/10/22 11:46:40;;;;;;;1.63;1.38;;;;;;;13.40;77.63;99663.50;5095177;28;20059;-67
2022/10/22 11:49:23;;;;;;;1.33;1.23;;;;;;;13.40;77.40;99662.63;5095035;28;20051;-67
2022/10/22 11:52:23;;;;;;;2.80;2.05;;;;;;;13.42;77.41;99660.91;5095398;28;20067;-68
2022/10/22 11:54:56;;;;;;;1.42;1.13;;;;;;;13.47;77.93;99668.53;5094688;28;20051;-67
2022/10/22 11:57:36;;;;;;;1.90;1.38;;;;;;;13.51;78.05;99676.16;5095194;28;20054;-67
2022/10/22 12:00:12;;;;;;;1.10;1.00;;;;;;;13.56;78.79;99676.09;5095207;28;20036;-67
2022/10/22 12:02:44;;;;;;;0.57;0.57;;;;;;;13.51;79.73;99680.47;5094875;28;20056;-66
2022/10/22 12:05:34;;;;;;;2.13;1.98;;;;;;;13.40;80.27;99673.75;5094880;28;20048;-67